Time;durP1;ratioP1;P1;durP2;ratioP2;P2;SDS_P1;SDS_P2;PMS_P1;PMS_P2;Temp;Humidity;BMP_temperature;BMP_pressure;BME280_temperature;BME280_humidity;BME280_pressure;Samples;Min_cycle;Max_cycle;Signal;HPM_P1;HPM_P2
2022/06/19 00:02:40;;;;;;;11.17;2.33;;;17.00;99.90;;;;;;5007337;28;20200;-74
2022/06/19 00:05:25;;;;;;;12.67;2.60;;;17.00;99.90;;;;;;5019449;28;20238;-73
2022/06/19 00:08:09;;;;;;;14.00;2.83;;;17.00;99.90;;;;;;5025196;28;20231;-74
2022/06/19 00:10:53;;;;;;;11.87;2.57;;;16.90;99.90;;;;;;5014261;28;20215;-74
2022/06/19 00:13:38;;;;;;;8.47;2.33;;;16.80;99.90;;;;;;5003745;28;20296;-74
2022/06/19 00:16:22;;;;;;;13.33;2.50;;;16.80;99.90;;;;;;5021815;28;20257;-75
2022/06/19 00:19:07;;;;;;;12.10;2.63;;;16.70;99.90;;;;;;5011251;28;20194;-74
2022/06/19 00:21:51;;;;;;;16.90;2.60;;;16.70;99.90;;;;;;5008027;28;20647;-74
2022/06/19 00:24:36;;;;;;;14.47;2.97;;;16.60;99.90;;;;;;5015596;28;20218;-74
2022/06/19 00:27:20;;;;;;;13.13;2.83;;;16.60;99.90;;;;;;5025640;28;20195;-77
2022/06/19 00:30:07;;;;;;;9.77;3.27;;;16.50;99.90;;;;;;5004986;28;20186;-73
2022/06/19 00:32:52;;;;;;;10.80;2.47;;;16.50;99.90;;;;;;5021353;28;20239;-74
2022/06/19 00:35:36;;;;;;;13.80;2.67;;;16.40;99.90;;;;;;5008720;28;20275;-74
2022/06/19 00:38:20;;;;;;;15.47;3.10;;;16.40;99.90;;;;;;5010463;28;20770;-74
2022/06/19 00:41:08;;;;;;;9.30;2.70;;;16.30;99.90;;;;;;5008363;28;20202;-75
2022/06/19 00:44:07;;;;;;;15.07;2.73;;;16.30;99.90;;;;;;5010789;28;20187;-74
2022/06/19 00:47:07;;;;;;;10.27;2.90;;;16.30;99.90;;;;;;5023085;28;20187;-75
2022/06/19 00:49:56;;;;;;;11.20;2.60;;;16.30;99.90;;;;;;5007023;28;20614;-74
2022/06/19 00:52:41;;;;;;;11.33;2.77;;;16.20;99.90;;;;;;5013923;28;20211;-75
2022/06/19 00:55:30;;;;;;;12.17;2.37;;;16.20;99.90;;;;;;5011345;28;20644;-76
2022/06/19 00:58:29;;;;;;;14.50;2.90;;;16.10;99.90;;;;;;5011963;28;20247;-74
2022/06/19 01:01:17;;;;;;;13.43;2.93;;;16.10;99.90;;;;;;5011337;28;20235;-75
2022/06/19 01:04:40;;;;;;;10.97;2.53;;;16.10;99.90;;;;;;5010767;28;20263;-74
2022/06/19 01:07:26;;;;;;;12.93;2.90;;;16.10;99.90;;;;;;5008496;28;20745;-74
2022/06/19 01:10:12;;;;;;;13.23;2.43;;;16.10;99.90;;;;;;5008255;28;20180;-73
2022/06/19 01:12:57;;;;;;;14.37;2.67;;;16.10;99.90;;;;;;5024861;28;20196;-74
2022/06/19 01:15:41;;;;;;;11.83;3.17;;;16.10;99.90;;;;;;5008591;28;20250;-73
2022/06/19 01:18:26;;;;;;;12.27;2.90;;;16.00;99.90;;;;;;5002670;28;20180;-75
2022/06/19 01:21:13;;;;;;;8.77;2.30;;;16.00;99.90;;;;;;5010465;28;20262;-74
2022/06/19 01:24:04;;;;;;;11.27;2.80;;;15.90;99.90;;;;;;5019840;28;20234;-74
2022/06/19 01:26:52;;;;;;;11.20;2.53;;;15.90;99.90;;;;;;5007266;28;20242;-75
2022/06/19 01:29:36;;;;;;;12.10;2.97;;;16.00;99.90;;;;;;5012126;28;20214;-72
2022/06/19 01:32:20;;;;;;;16.43;3.40;;;15.90;99.90;;;;;;5004613;28;20242;-75
2022/06/19 01:35:08;;;;;;;17.40;3.40;;;15.80;99.90;;;;;;5006624;28;20247;-74
2022/06/19 01:37:54;;;;;;;16.20;2.90;;;15.80;99.90;;;;;;5009166;28;20179;-74
2022/06/19 01:40:41;;;;;;;18.23;3.20;;;15.80;99.90;;;;;;5009564;28;20219;-74
2022/06/19 01:43:25;;;;;;;12.73;2.63;;;15.70;99.90;;;;;;5007559;28;20179;-77
2022/06/19 01:46:10;;;;;;;14.00;2.87;;;15.70;99.90;;;;;;5012081;28;20206;-75
2022/06/19 01:48:56;;;;;;;19.10;3.73;;;15.70;99.90;;;;;;5010873;28;20222;-76
2022/06/19 01:51:44;;;;;;;14.17;2.80;;;15.70;99.90;;;;;;5008157;28;20729;-74
2022/06/19 01:54:41;;;;;;;15.23;2.90;;;15.70;99.90;;;;;;5006044;28;20596;-73
2022/06/19 01:57:27;;;;;;;14.80;2.93;;;15.70;99.90;;;;;;5009359;28;20191;-74
2022/06/19 02:00:23;;;;;;;15.30;2.67;;;15.60;99.90;;;;;;5015968;28;20265;-75
2022/06/19 02:03:15;;;;;;;18.27;3.93;;;15.60;99.90;;;;;;5002617;28;20185;-74
2022/06/19 02:06:00;;;;;;;12.43;2.93;;;15.60;99.90;;;;;;5025424;28;20258;-73
2022/06/19 02:08:46;;;;;;;17.70;2.87;;;15.60;99.90;;;;;;5005398;28;20188;-75
2022/06/19 02:11:34;;;;;;;14.23;3.53;;;15.60;99.90;;;;;;5005814;28;20243;-75
2022/06/19 02:14:19;;;;;;;18.20;3.47;;;15.60;99.90;;;;;;5014379;28;20207;-73
2022/06/19 02:17:14;;;;;;;16.23;3.37;;;15.70;99.90;;;;;;5019110;28;20206;-74
2022/06/19 02:19:58;;;;;;;16.27;3.07;;;15.70;99.90;;;;;;5006778;28;20183;-73
2022/06/19 02:22:43;;;;;;;15.53;2.80;;;15.70;99.90;;;;;;5013551;28;20204;-73
2022/06/19 02:25:27;;;;;;;15.67;3.30;;;15.70;99.90;;;;;;5011830;28;20683;-74
2022/06/19 02:28:12;;;;;;;15.97;2.83;;;15.70;99.90;;;;;;5006361;28;20717;-74
2022/06/19 02:30:57;;;;;;;10.07;2.67;;;15.70;99.90;;;;;;5014145;28;20285;-74
2022/06/19 02:33:45;;;;;;;14.27;2.90;;;15.70;99.90;;;;;;5012254;28;20278;-74
2022/06/19 02:36:40;;;;;;;13.87;2.83;;;15.70;99.90;;;;;;5015777;28;20191;-74
2022/06/19 02:39:34;;;;;;;12.07;2.60;;;15.70;99.90;;;;;;5029759;28;20211;-74
2022/06/19 02:42:24;;;;;;;12.80;2.87;;;15.70;99.90;;;;;;5009647;28;20342;-75
2022/06/19 02:45:13;;;;;;;14.60;2.87;;;15.70;99.90;;;;;;5027768;28;20231;-75
2022/06/19 02:47:59;;;;;;;11.83;2.47;;;15.70;99.90;;;;;;5012127;28;20191;-73
2022/06/19 02:50:43;;;;;;;7.37;2.40;;;15.60;99.90;;;;;;5000580;28;20215;-74
2022/06/19 02:53:28;;;;;;;12.93;3.70;;;15.60;99.90;;;;;;5006813;28;20183;-74
2022/06/19 02:56:12;;;;;;;12.53;2.67;;;15.60;99.90;;;;;;5012971;28;20651;-75
2022/06/19 02:58:57;;;;;;;9.67;2.93;;;15.60;99.90;;;;;;5011453;28;20195;-73
2022/06/19 03:01:41;;;;;;;14.17;3.00;;;15.60;99.90;;;;;;5029092;28;20223;-74
2022/06/19 03:04:31;;;;;;;11.63;2.67;;;15.50;99.90;;;;;;5004241;28;20675;-75
2022/06/19 03:07:16;;;;;;;11.53;2.43;;;15.50;99.90;;;;;;5015059;28;20230;-73
2022/06/19 03:10:00;;;;;;;14.40;2.70;;;15.50;99.90;;;;;;5011699;28;20191;-74
2022/06/19 03:12:44;;;;;;;14.43;2.70;;;15.40;99.90;;;;;;5011303;28;20200;-75
2022/06/19 03:15:29;;;;;;;9.60;2.70;;;15.40;99.90;;;;;;5008509;28;20219;-74
2022/06/19 03:18:13;;;;;;;13.23;2.33;;;15.40;99.90;;;;;;5009538;28;20675;-74
2022/06/19 03:20:57;;;;;;;12.63;2.60;;;15.40;99.90;;;;;;5013221;28;20222;-74
2022/06/19 03:23:41;;;;;;;9.30;2.07;;;15.40;99.90;;;;;;5009789;28;20223;-74
2022/06/19 03:26:30;;;;;;;10.97;2.77;;;15.30;99.90;;;;;;5015462;28;20647;-74
2022/06/19 03:29:15;;;;;;;11.43;2.20;;;15.30;99.90;;;;;;5018010;28;20176;-74
2022/06/19 03:31:59;;;;;;;14.97;2.97;;;15.30;99.90;;;;;;5011229;28;20230;-73
2022/06/19 03:34:44;;;;;;;17.07;3.07;;;15.30;99.90;;;;;;5005771;28;20208;-74
2022/06/19 03:37:28;;;;;;;14.77;2.43;;;15.30;99.90;;;;;;5008818;28;20195;-73
2022/06/19 03:40:13;;;;;;;14.73;3.13;;;15.30;99.90;;;;;;5013563;28;20178;-73
2022/06/19 03:42:57;;;;;;;13.33;2.57;;;15.20;99.90;;;;;;5011119;28;20243;-75
2022/06/19 03:45:41;;;;;;;13.23;2.27;;;15.20;99.90;;;;;;5001116;28;20212;-74
2022/06/19 03:48:25;;;;;;;15.00;2.50;;;15.20;99.90;;;;;;5009895;28;20230;-74
2022/06/19 03:51:10;;;;;;;12.70;2.50;;;15.20;99.90;;;;;;5007331;28;20249;-73
2022/06/19 03:53:55;;;;;;;9.47;2.40;;;15.20;99.90;;;;;;5011642;28;20262;-74
2022/06/19 03:56:40;;;;;;;15.37;2.27;;;15.20;99.90;;;;;;5009672;28;20186;-74
2022/06/19 03:59:24;;;;;;;10.30;2.57;;;15.20;99.90;;;;;;5010103;28;20192;-73
2022/06/19 04:02:10;;;;;;;14.00;3.00;;;15.10;99.90;;;;;;5033321;28;20211;-75
2022/06/19 04:04:54;;;;;;;15.97;2.73;;;15.20;99.90;;;;;;5013251;28;20242;-74
2022/06/19 04:07:44;;;;;;;12.13;2.50;;;15.20;99.90;;;;;;5010182;28;20227;-75
2022/06/19 04:10:29;;;;;;;17.37;2.70;;;15.20;99.90;;;;;;5012365;28;20178;-74
2022/06/19 04:13:13;;;;;;;9.97;2.03;;;15.10;99.90;;;;;;5002572;28;20556;-75
2022/06/19 04:15:57;;;;;;;16.07;2.70;;;15.20;99.90;;;;;;5020588;28;20245;-74
2022/06/19 04:18:41;;;;;;;12.27;2.40;;;15.20;99.90;;;;;;5014121;28;20199;-73
2022/06/19 04:21:27;;;;;;;9.73;2.23;;;15.10;99.90;;;;;;5023844;28;20215;-73
2022/06/19 04:24:19;;;;;;;11.43;2.37;;;15.20;99.90;;;;;;5017768;28;20179;-76
2022/06/19 04:27:05;;;;;;;11.30;2.10;;;15.20;99.90;;;;;;5010096;28;20651;-75
2022/06/19 04:29:52;;;;;;;10.60;2.70;;;15.30;99.90;;;;;;5027066;28;20221;-75
2022/06/19 04:32:37;;;;;;;11.43;2.00;;;15.30;99.90;;;;;;5010907;28;20261;-76
2022/06/19 04:35:21;;;;;;;11.47;2.60;;;15.30;99.90;;;;;;5006052;28;20210;-74
2022/06/19 04:38:05;;;;;;;11.20;2.30;;;15.20;99.90;;;;;;5003903;28;20195;-74
2022/06/19 04:40:50;;;;;;;12.97;2.40;;;15.20;99.90;;;;;;5015504;28;20214;-73
2022/06/19 04:43:34;;;;;;;13.33;2.10;;;15.30;99.90;;;;;;5006933;28;20235;-75
2022/06/19 04:46:19;;;;;;;11.40;2.07;;;15.30;99.90;;;;;;5009777;28;20198;-73
2022/06/19 04:49:04;;;;;;;8.33;2.23;;;15.30;99.90;;;;;;5017598;28;20333;-74
2022/06/19 04:51:48;;;;;;;8.77;1.80;;;15.20;99.90;;;;;;5002176;28;20223;-77
2022/06/19 04:54:32;;;;;;;11.70;2.20;;;15.30;99.90;;;;;;5009921;28;20298;-80
2022/06/19 04:57:17;;;;;;;10.90;2.30;;;15.30;99.90;;;;;;5013103;28;20263;-77
2022/06/19 05:00:01;;;;;;;15.47;1.73;;;15.40;99.90;;;;;;5011651;28;20191;-78
2022/06/19 05:02:52;;;;;;;11.70;2.43;;;15.40;99.90;;;;;;5007772;28;20187;-78
2022/06/19 05:05:36;;;;;;;7.47;1.97;;;15.40;99.90;;;;;;5008528;28;20200;-77
2022/06/19 05:08:21;;;;;;;9.90;1.97;;;15.40;99.90;;;;;;5005855;28;20268;-77
2022/06/19 05:11:09;;;;;;;12.30;2.20;;;15.40;99.90;;;;;;5015509;28;20621;-78
2022/06/19 05:13:54;;;;;;;8.40;2.17;;;15.50;99.90;;;;;;5019616;28;20207;-76
2022/06/19 05:16:38;;;;;;;12.73;2.57;;;15.50;99.90;;;;;;5011281;28;20183;-78
2022/06/19 05:19:22;;;;;;;11.90;2.47;;;15.50;99.90;;;;;;5011672;28;20182;-78
2022/06/19 05:22:06;;;;;;;16.33;2.10;;;15.50;99.90;;;;;;5013250;28;20219;-76
2022/06/19 05:24:51;;;;;;;12.67;2.00;;;15.50;99.90;;;;;;5015221;28;20195;-76
2022/06/19 05:27:36;;;;;;;13.43;2.40;;;15.60;99.90;;;;;;5010254;28;20234;-77
2022/06/19 05:30:21;;;;;;;8.57;2.77;;;15.60;99.90;;;;;;5011917;28;20399;-77
2022/06/19 05:33:05;;;;;;;13.67;2.30;;;15.60;99.90;;;;;;5012104;28;20264;-76
2022/06/19 05:35:49;;;;;;;9.70;1.80;;;15.60;99.90;;;;;;5015699;28;20215;-75
2022/06/19 05:38:33;;;;;;;10.70;2.23;;;15.70;99.90;;;;;;5007196;28;20191;-76
2022/06/19 05:41:17;;;;;;;9.87;2.17;;;15.70;99.90;;;;;;5025499;28;20267;-74
2022/06/19 05:44:02;;;;;;;12.97;1.97;;;15.80;99.90;;;;;;5021418;28;20281;-75
2022/06/19 05:46:50;;;;;;;10.00;2.43;;;15.80;99.90;;;;;;5002611;28;20586;-78
2022/06/19 05:49:34;;;;;;;10.40;2.23;;;15.80;99.90;;;;;;5030842;28;20200;-76
2022/06/19 05:52:22;;;;;;;12.30;2.20;;;15.80;99.90;;;;;;5010736;28;20227;-76
2022/06/19 05:55:07;;;;;;;9.63;2.07;;;15.90;99.90;;;;;;5011112;28;20227;-76
2022/06/19 05:57:51;;;;;;;9.70;2.03;;;15.90;99.90;;;;;;5014733;28;20276;-77
2022/06/19 06:00:35;;;;;;;18.00;2.73;;;16.00;99.90;;;;;;5018762;28;20587;-81
2022/06/19 06:03:21;;;;;;;8.97;1.90;;;16.00;99.90;;;;;;5029983;28;20195;-75
2022/06/19 06:06:11;;;;;;;11.13;2.37;;;16.00;99.90;;;;;;5020162;28;20195;-76
2022/06/19 06:08:56;;;;;;;11.10;2.37;;;16.10;99.90;;;;;;5017799;28;20179;-76
2022/06/19 06:11:40;;;;;;;13.33;2.40;;;16.20;99.90;;;;;;5019768;28;20211;-75
2022/06/19 06:14:24;;;;;;;8.53;2.20;;;16.20;99.90;;;;;;5031841;28;20303;-75
2022/06/19 06:17:09;;;;;;;9.03;2.10;;;16.30;99.90;;;;;;5021580;28;20226;-76
2022/06/19 06:19:53;;;;;;;12.37;2.63;;;16.30;99.90;;;;;;5015938;28;20187;-74
2022/06/19 06:22:37;;;;;;;6.93;1.97;;;16.40;99.90;;;;;;5004183;28;20204;-76
2022/06/19 06:25:22;;;;;;;10.83;2.20;;;16.40;99.90;;;;;;5011990;28;20196;-75
2022/06/19 06:28:06;;;;;;;14.00;1.97;;;16.40;99.90;;;;;;5010673;28;20195;-75
2022/06/19 06:30:50;;;;;;;6.50;1.27;;;16.40;99.90;;;;;;5013312;28;20211;-75
2022/06/19 06:33:34;;;;;;;8.23;1.63;;;16.40;99.90;;;;;;5018748;28;20566;-76
2022/06/19 06:36:18;;;;;;;10.53;1.63;;;16.50;99.90;;;;;;5014635;28;20179;-75
2022/06/19 06:39:03;;;;;;;7.13;1.50;;;16.50;99.90;;;;;;5010234;28;20674;-75
2022/06/19 06:41:48;;;;;;;8.93;1.80;;;16.60;99.90;;;;;;5023893;28;20299;-75
2022/06/19 06:44:32;;;;;;;9.13;1.80;;;16.60;99.90;;;;;;5015608;28;20645;-74
2022/06/19 06:47:16;;;;;;;8.53;1.50;;;16.70;99.90;;;;;;5010404;28;20577;-75
2022/06/19 06:50:00;;;;;;;7.00;1.60;;;16.70;99.90;;;;;;5012690;28;20218;-74
2022/06/19 06:52:44;;;;;;;8.60;1.97;;;16.70;99.90;;;;;;5015759;28;20246;-75
2022/06/19 06:55:28;;;;;;;10.27;1.87;;;16.80;99.90;;;;;;5014879;28;20218;-75
2022/06/19 06:58:12;;;;;;;10.73;2.13;;;16.90;99.90;;;;;;5004243;28;20235;-75
2022/06/19 07:00:56;;;;;;;11.03;1.83;;;17.00;99.90;;;;;;5025731;28;20258;-76
2022/06/19 07:03:45;;;;;;;5.83;1.63;;;17.00;99.90;;;;;;5024732;28;20207;-77
2022/06/19 07:06:30;;;;;;;7.27;1.77;;;17.10;99.90;;;;;;5003830;28;20191;-77
2022/06/19 07:09:14;;;;;;;5.37;1.40;;;17.10;99.90;;;;;;5021432;28;20188;-78
2022/06/19 07:11:58;;;;;;;6.03;1.50;;;17.20;99.90;;;;;;5008133;28;20265;-77
2022/06/19 07:14:42;;;;;;;10.03;1.93;;;17.30;99.90;;;;;;5011231;28;20209;-79
2022/06/19 07:17:27;;;;;;;7.37;1.87;;;17.30;99.90;;;;;;5014348;28;20192;-77
2022/06/19 07:20:11;;;;;;;4.80;1.60;;;17.40;99.90;;;;;;5004593;28;20184;-75
2022/06/19 07:22:55;;;;;;;6.67;1.83;;;17.50;99.90;;;;;;5006691;28;20211;-77
2022/06/19 07:25:40;;;;;;;7.40;1.60;;;17.60;99.90;;;;;;5008447;28;20210;-75
2022/06/19 07:28:23;;;;;;;6.03;1.50;;;17.60;99.90;;;;;;5024548;28;20206;-78
2022/06/19 07:31:09;;;;;;;7.27;1.60;;;17.80;99.90;;;;;;5020607;28;20231;-79
2022/06/19 07:33:53;;;;;;;7.63;1.90;;;17.90;99.90;;;;;;5015058;28;20223;-77
2022/06/19 07:36:38;;;;;;;5.93;1.27;;;17.90;99.90;;;;;;5017691;28;20277;-80
2022/06/19 07:39:22;;;;;;;8.23;2.20;;;18.00;99.90;;;;;;5011367;28;20191;-79
2022/06/19 07:42:10;;;;;;;6.93;1.73;;;18.10;99.90;;;;;;5029027;28;20219;-79
2022/06/19 07:44:54;;;;;;;5.30;1.53;;;18.00;99.90;;;;;;5013613;28;20222;-78
2022/06/19 07:50:43;;;;;;;10.80;2.00;;;18.00;99.90;;;;;;5028101;28;20219;-79
2022/06/19 07:53:27;;;;;;;5.63;1.60;;;18.00;99.90;;;;;;5017361;28;20188;-79
2022/06/19 07:56:11;;;;;;;6.13;1.43;;;18.10;99.90;;;;;;5029119;28;20245;-77
2022/06/19 07:58:55;;;;;;;5.87;1.70;;;18.20;99.90;;;;;;5026914;28;20230;-78
2022/06/19 08:01:39;;;;;;;12.67;2.13;;;18.30;99.90;;;;;;5009120;28;20206;-78
2022/06/19 08:04:23;;;;;;;8.00;2.50;;;18.40;99.90;;;;;;5023997;28;20623;-78
2022/06/19 08:07:21;;;;;;;6.90;1.53;;;18.50;99.90;;;;;;5068604;27;20580;-76
2022/06/19 08:10:08;;;;;;;4.47;1.10;;;18.50;99.90;;;;;;5086865;28;20185;-75
2022/06/19 08:12:53;;;;;;;7.23;1.47;;;18.50;99.90;;;;;;5050419;28;20190;-75
2022/06/19 08:15:38;;;;;;;6.47;2.20;;;18.60;99.90;;;;;;5048144;28;20203;-76
2022/06/19 08:18:23;;;;;;;7.73;1.63;;;18.70;99.90;;;;;;5042380;28;20188;-76
2022/06/19 08:21:07;;;;;;;7.87;1.47;;;18.70;99.90;;;;;;5050252;28;20596;-76
2022/06/19 08:23:51;;;;;;;5.57;1.90;;;18.90;99.90;;;;;;5057237;28;20325;-76
2022/06/19 08:26:35;;;;;;;7.13;1.60;;;18.90;99.90;;;;;;5054819;28;20288;-76
2022/06/19 08:29:19;;;;;;;4.90;2.05;;;19.00;99.90;;;;;;5043179;28;20269;-76
2022/06/19 08:32:04;;;;;;;5.60;1.20;;;19.10;99.90;;;;;;5045454;28;20323;-77
2022/06/19 08:34:49;;;;;;;7.43;1.20;;;19.10;99.90;;;;;;5065111;28;20192;-77
2022/06/19 08:37:34;;;;;;;5.38;1.25;;;19.10;99.90;;;;;;5067232;28;20707;-76
2022/06/19 08:40:33;;;;;;;5.65;1.20;;;19.20;99.90;;;;;;5039692;28;20704;-77
2022/06/19 08:43:31;;;;;;;7.28;1.23;;;19.20;99.90;;;;;;5041335;28;20233;-77
2022/06/19 08:46:38;;;;;;;5.03;1.13;;;19.40;99.90;;;;;;5050952;28;20240;-76
2022/06/19 08:49:40;;;;;;;3.22;1.02;;;19.50;99.90;;;;;;5047446;28;20669;-77
2022/06/19 08:52:43;;;;;;;5.45;0.85;;;19.50;99.90;;;;;;5045791;28;20588;-76
2022/06/19 08:55:57;;;;;;;4.38;1.23;;;19.50;99.90;;;;;;5032815;28;20190;-76
2022/06/19 08:58:55;;;;;;;7.32;1.00;;;19.40;99.90;;;;;;5048204;28;20194;-76
2022/06/19 09:01:46;;;;;;;4.13;1.27;;;19.40;99.90;;;;;;5039327;28;20249;-77
2022/06/19 09:05:36;;;;;;;3.65;0.90;;;19.40;99.90;;;;;;5045511;28;20238;-76
2022/06/19 09:08:32;;;;;;;7.32;1.85;;;19.40;99.90;;;;;;5051016;28;20186;-76
2022/06/19 09:11:50;;;;;;;8.75;1.02;;;19.50;99.90;;;;;;5044032;28;20258;-75
2022/06/19 09:14:51;;;;;;;3.25;1.00;;;19.50;99.90;;;;;;5049610;28;20265;-77
2022/06/19 09:17:46;;;;;;;5.93;1.37;;;19.60;99.90;;;;;;5055649;28;20234;-77
2022/06/19 09:20:44;;;;;;;5.60;1.30;;;19.60;99.90;;;;;;5031516;28;20208;-76
2022/06/19 09:23:33;;;;;;;6.20;1.50;;;19.70;99.90;;;;;;5041640;28;20189;-75
2022/06/19 09:26:25;;;;;;;7.50;1.52;;;19.80;99.90;;;;;;5038495;28;20357;-75
2022/06/19 09:29:22;;;;;;;5.32;1.70;;;19.70;99.90;;;;;;5036906;28;20298;-77
2022/06/19 09:32:10;;;;;;;4.00;1.17;;;19.70;99.90;;;;;;5034914;28;20375;-75
2022/06/19 09:35:01;;;;;;;3.67;1.50;;;19.50;99.90;;;;;;5039351;28;20217;-77
2022/06/19 09:37:59;;;;;;;4.65;1.17;;;19.50;99.90;;;;;;5030132;28;20191;-77
2022/06/19 09:40:52;;;;;;;4.35;1.23;;;19.40;99.90;;;;;;5026549;28;20674;-77
2022/06/19 09:43:50;;;;;;;4.07;1.10;;;19.30;99.90;;;;;;5047748;28;20239;-77
2022/06/19 09:46:43;;;;;;;4.65;1.20;;;19.20;99.90;;;;;;5034133;28;20676;-76
2022/06/19 09:49:38;;;;;;;7.40;1.33;;;19.10;99.90;;;;;;5027715;28;20219;-77
2022/06/19 09:52:53;;;;;;;8.98;1.45;;;19.10;99.90;;;;;;5035310;28;20226;-77
2022/06/19 09:55:40;;;;;;;5.45;1.45;;;19.10;99.90;;;;;;5048862;28;20198;-76
2022/06/19 09:58:33;;;;;;;4.32;1.13;;;19.10;99.90;;;;;;5033600;28;20199;-76
2022/06/19 10:01:18;;;;;;;5.93;1.30;;;19.10;99.90;;;;;;5043526;28;20218;-77
2022/06/19 10:04:03;;;;;;;7.38;1.30;;;19.10;99.90;;;;;;5046878;28;20188;-76
2022/06/19 10:06:57;;;;;;;7.38;1.55;;;19.00;99.90;;;;;;5045760;28;20242;-76
2022/06/19 10:09:52;;;;;;;6.53;1.40;;;19.10;99.90;;;;;;5031876;28;20569;-76
2022/06/19 10:12:43;;;;;;;6.53;1.48;;;18.90;99.90;;;;;;5031804;28;20219;-76
2022/06/19 10:15:34;;;;;;;7.28;1.95;;;18.90;99.90;;;;;;5030370;28;20218;-76
2022/06/19 10:18:30;;;;;;;9.37;1.67;;;18.90;99.90;;;;;;5023858;28;20207;-76
2022/06/19 10:24:33;;;;;;;4.40;1.02;;;18.80;99.90;;;;;;5033695;28;20191;-76
2022/06/19 10:27:27;;;;;;;6.82;1.40;;;18.80;99.90;;;;;;5036777;28;20230;-77
2022/06/19 10:30:18;;;;;;;7.15;1.65;;;18.80;99.90;;;;;;5020697;28;20561;-76
2022/06/19 10:33:39;;;;;;;13.60;1.53;;;18.80;99.90;;;;;;5052661;28;20191;-76
2022/06/19 10:36:47;;;;;;;7.55;1.45;;;18.70;99.90;;;;;;5026983;28;20194;-76
2022/06/19 10:39:47;;;;;;;4.97;1.40;;;18.80;99.90;;;;;;5032981;28;20229;-76
2022/06/19 10:43:04;;;;;;;5.68;1.63;;;18.80;99.90;;;;;;5032685;28;20257;-76
2022/06/19 10:45:52;;;;;;;5.77;1.47;;;18.70;99.90;;;;;;5043083;28;20242;-77
2022/06/19 10:49:08;;;;;;;8.40;1.73;;;18.70;99.90;;;;;;5038116;28;20231;-76
2022/06/19 10:51:58;;;;;;;5.03;1.60;;;18.70;99.90;;;;;;5033794;28;20235;-77
2022/06/19 10:55:11;;;;;;;6.85;1.65;;;18.70;99.90;;;;;;5028007;28;20663;-77
2022/06/19 10:58:01;;;;;;;6.93;1.63;;;18.70;99.90;;;;;;5041218;28;20278;-79
2022/06/19 11:00:55;;;;;;;6.40;1.85;;;18.60;99.90;;;;;;5036212;28;20215;-78
2022/06/19 11:06:55;;;;;;;5.27;1.70;;;18.20;99.90;;;;;;5029216;28;20223;-78
2022/06/19 11:09:46;;;;;;;6.10;1.30;;;18.10;99.90;;;;;;5025467;28;20670;-79
2022/06/19 11:12:41;;;;;;;3.87;1.60;;;18.00;99.90;;;;;;5033790;28;20210;-79
2022/06/19 11:15:25;;;;;;;7.83;1.73;;;17.90;99.90;;;;;;5027855;28;20724;-79
2022/06/19 11:18:27;;;;;;;7.37;1.93;;;17.80;99.90;;;;;;5026404;28;20221;-79
2022/06/19 11:21:15;;;;;;;4.40;1.50;;;17.60;99.90;;;;;;5034139;28;20226;-79
2022/06/19 11:24:02;;;;;;;7.17;2.03;;;17.50;99.90;;;;;;5033389;28;20183;-77
2022/06/19 11:26:46;;;;;;;5.23;1.63;;;17.50;99.90;;;;;;5049018;28;20229;-80
2022/06/19 11:29:31;;;;;;;6.27;1.70;;;17.50;99.90;;;;;;5045991;28;20181;-79
2022/06/19 11:32:19;;;;;;;7.13;1.80;;;17.50;99.90;;;;;;5043882;28;20219;-79
2022/06/19 11:35:08;;;;;;;6.17;1.50;;;17.50;99.90;;;;;;5035170;28;20219;-78
2022/06/19 11:37:56;;;;;;;5.47;1.67;;;17.40;99.90;;;;;;5029080;28;20609;-78
2022/06/19 11:40:46;;;;;;;4.50;1.70;;;17.50;99.90;;;;;;5033565;28;20309;-79
2022/06/19 11:43:32;;;;;;;8.00;1.80;;;17.60;99.90;;;;;;5034278;28;20213;-79
2022/06/19 11:46:26;;;;;;;8.33;1.70;;;17.70;99.90;;;;;;5028698;28;20225;-78
2022/06/19 11:49:27;;;;;;;2.57;1.13;;;17.70;99.90;;;;;;5024809;28;20693;-79
2022/06/19 11:52:20;;;;;;;2.97;1.37;;;17.70;99.90;;;;;;5027709;28;20218;-79
2022/06/19 11:55:35;;;;;;;6.40;1.43;;;17.70;99.90;;;;;;5040908;28;20280;-79
2022/06/19 11:58:40;;;;;;;4.97;1.27;;;17.80;99.90;;;;;;5031732;28;20207;-79
2022/06/19 12:01:39;;;;;;;4.07;1.50;;;17.80;99.90;;;;;;5025010;28;20212;-79
2022/06/19 12:04:27;;;;;;;3.93;1.17;;;17.80;99.90;;;;;;5030575;28;20186;-78
2022/06/19 12:07:16;;;;;;;5.43;1.40;;;17.90;99.90;;;;;;5046404;28;20246;-79
2022/06/19 12:10:04;;;;;;;1.67;0.97;;;18.00;99.90;;;;;;5037559;28;20737;-79
2022/06/19 12:12:57;;;;;;;3.20;1.10;;;18.00;99.90;;;;;;5051871;28;20199;-79
2022/06/19 12:15:56;;;;;;;3.00;1.37;;;17.90;99.90;;;;;;5020063;28;20269;-77
2022/06/19 12:18:41;;;;;;;3.10;1.20;;;17.90;99.90;;;;;;5034481;28;20199;-79
2022/06/19 12:21:29;;;;;;;4.07;1.37;;;17.90;99.90;;;;;;5017031;28;20589;-78
2022/06/19 12:24:19;;;;;;;2.67;1.00;;;18.00;99.90;;;;;;5041382;28;20555;-77
2022/06/19 12:27:07;;;;;;;6.57;1.20;;;18.00;99.90;;;;;;5034573;28;20211;-78
2022/06/19 12:29:57;;;;;;;4.00;1.60;;;18.00;99.90;;;;;;5023728;28;20192;-77
2022/06/19 12:32:44;;;;;;;4.83;1.30;;;18.00;99.90;;;;;;5019566;28;20185;-78
2022/06/19 12:35:35;;;;;;;3.40;1.13;;;18.00;99.90;;;;;;5029398;28;20195;-78
2022/06/19 12:38:22;;;;;;;2.90;1.10;;;17.90;99.90;;;;;;5027172;28;20219;-78
2022/06/19 12:41:13;;;;;;;3.60;1.30;;;18.00;99.90;;;;;;5028825;28;20230;-76
2022/06/19 12:44:06;;;;;;;3.97;1.10;;;18.00;99.90;;;;;;5025084;28;20341;-75
2022/06/19 12:47:09;;;;;;;1.33;1.10;;;18.10;99.90;;;;;;5016849;28;20271;-75
2022/06/19 12:50:08;;;;;;;3.93;1.60;;;18.10;99.90;;;;;;5021397;28;20187;-75
2022/06/19 12:53:04;;;;;;;2.50;1.20;;;18.20;99.90;;;;;;5044664;28;20595;-75
2022/06/19 12:55:54;;;;;;;2.63;1.43;;;18.20;99.90;;;;;;5031015;28;20735;-76
2022/06/19 12:59:12;;;;;;;2.50;1.40;;;18.20;99.90;;;;;;5047181;28;20186;-75
2022/06/19 13:02:35;;;;;;;4.97;1.43;;;18.10;99.90;;;;;;5047571;28;20268;-75
2022/06/19 13:06:02;;;;;;;2.97;1.37;;;18.20;99.90;;;;;;5034751;28;20291;-76
2022/06/19 13:09:19;;;;;;;4.47;1.80;;;18.20;99.90;;;;;;5038995;28;20195;-75
2022/06/19 13:12:26;;;;;;;4.20;1.80;;;18.10;99.90;;;;;;5037904;28;20250;-75
2022/06/19 13:15:44;;;;;;;4.67;1.87;;;18.00;99.90;;;;;;5038252;28;20187;-75
2022/06/19 13:18:47;;;;;;;2.57;1.70;;;18.10;99.90;;;;;;5035867;28;20183;-75
2022/06/19 13:22:09;;;;;;;4.87;2.67;;;18.00;99.90;;;;;;5036071;28;20735;-76
2022/06/19 13:25:20;;;;;;;2.70;2.00;;;18.00;99.90;;;;;;5044773;28;20187;-75
2022/06/19 13:28:55;;;;;;;7.03;2.23;;;18.00;99.90;;;;;;5030864;28;20339;-75
2022/06/19 13:32:00;;;;;;;3.40;2.17;;;17.90;99.90;;;;;;5026137;28;20344;-75
2022/06/19 13:35:19;;;;;;;5.50;2.40;;;17.90;99.90;;;;;;5026084;28;20200;-75
2022/06/19 13:38:25;;;;;;;5.60;3.60;;;17.80;99.90;;;;;;5037845;28;20233;-75
2022/06/19 13:41:31;;;;;;;6.87;3.93;;;17.80;99.90;;;;;;5033069;28;20257;-75
2022/06/19 13:44:24;;;;;;;7.00;2.90;;;17.80;99.90;;;;;;5043576;28;20206;-74
2022/06/19 13:47:35;;;;;;;10.03;2.50;;;17.80;99.90;;;;;;5041938;28;20253;-75
2022/06/19 13:50:49;;;;;;;4.83;2.13;;;17.80;99.90;;;;;;5031805;28;20564;-75
2022/06/19 13:53:42;;;;;;;5.73;1.40;;;17.80;99.90;;;;;;5027681;28;20249;-75
2022/06/19 13:56:46;;;;;;;4.30;1.50;;;17.70;99.90;;;;;;5023414;28;20739;-75
2022/06/19 13:59:55;;;;;;;4.10;1.87;;;17.60;99.90;;;;;;5027091;28;20191;-75
2022/06/19 14:03:04;;;;;;;5.00;1.63;;;17.60;99.90;;;;;;5030290;28;20233;-75
2022/06/19 14:05:54;;;;;;;5.33;1.50;;;17.60;99.90;;;;;;5033373;28;20243;-74
2022/06/19 14:09:07;;;;;;;4.73;2.03;;;17.60;99.90;;;;;;5025155;28;20324;-74
2022/06/19 14:12:05;;;;;;;5.63;2.70;;;17.70;99.90;;;;;;5025939;28;20937;-75
2022/06/19 14:14:56;;;;;;;7.17;2.50;;;17.60;99.90;;;;;;5024644;28;20583;-74
2022/06/19 14:18:03;;;;;;;5.80;1.90;;;17.60;99.90;;;;;;5020018;28;20277;-74
2022/06/19 14:20:56;;;;;;;3.37;1.87;;;17.40;99.90;;;;;;5016448;28;20215;-74
2022/06/19 14:23:43;;;;;;;5.17;1.70;;;17.40;99.90;;;;;;5032854;28;20230;-75
2022/06/19 14:26:33;;;;;;;3.57;1.57;;;17.40;99.90;;;;;;5039968;28;20234;-74
2022/06/19 14:29:28;;;;;;;6.83;1.80;;;17.40;99.90;;;;;;5029620;28;20195;-76
2022/06/19 14:32:40;;;;;;;5.73;1.40;;;17.40;99.90;;;;;;5015921;28;20261;-74
2022/06/19 14:35:38;;;;;;;6.93;1.93;;;17.50;99.90;;;;;;5041002;28;20216;-74
2022/06/19 15:52:45;;;;;;;3.30;1.47;;;16.80;99.90;;;;;;5041284;28;20584;-72
2022/06/19 15:55:47;;;;;;;7.40;1.77;;;16.70;99.90;;;;;;5033364;28;20195;-73
2022/06/19 15:58:36;;;;;;;4.57;1.60;;;16.70;99.90;;;;;;5040807;28;20195;-73
2022/06/19 16:01:26;;;;;;;6.60;1.83;;;16.70;99.90;;;;;;5038723;28;20270;-73
2022/06/19 16:04:19;;;;;;;6.40;2.07;;;16.80;99.90;;;;;;5047971;28;20275;-73
2022/06/19 16:07:15;;;;;;;4.00;1.60;;;16.90;99.90;;;;;;5040636;28;20662;-74
2022/06/19 16:10:19;;;;;;;5.43;2.10;;;16.90;99.90;;;;;;5031881;28;20198;-74